Time;durP1;ratioP1;P1;durP2;ratioP2;P2;SDS_P1;SDS_P2;PMS_P1;PMS_P2;Temp;Humidity;BMP_temperature;BMP_pressure;BME280_temperature;BME280_humidity;BME280_pressure;Samples;Min_cycle;Max_cycle;Signal;HPM_P1;HPM_P2
2021/03/23 00:01:29;;;;;;;7.13;4.55;;;6.20;99.30;;;;;;5074193;28;20093;-81
2021/03/23 00:03:55;;;;;;;7.57;5.18;;;6.20;99.30;;;;;;5074147;28;20363;-81
2021/03/23 00:06:24;;;;;;;8.02;5.95;;;6.20;99.20;;;;;;5074228;28;20020;-81
2021/03/23 00:08:53;;;;;;;8.67;5.87;;;6.30;99.20;;;;;;5073782;28;20020;-81
2021/03/23 00:11:23;;;;;;;8.63;5.65;;;6.30;99.20;;;;;;5075370;28;20021;-81
2021/03/23 00:13:49;;;;;;;9.38;5.18;;;6.30;99.20;;;;;;5073867;28;20020;-81
2021/03/23 00:16:18;;;;;;;7.97;5.75;;;6.30;99.30;;;;;;5073590;28;20124;-81
2021/03/23 00:18:46;;;;;;;6.53;5.03;;;6.30;99.30;;;;;;5075095;28;20025;-81
2021/03/23 00:21:12;;;;;;;7.35;5.00;;;6.30;99.60;;;;;;5073989;28;20012;-81
2021/03/23 00:23:38;;;;;;;8.43;4.63;;;6.30;99.40;;;;;;5073515;28;20070;-81
2021/03/23 00:26:04;;;;;;;8.40;5.07;;;6.30;99.40;;;;;;5073898;28;20021;-81
2021/03/23 00:28:30;;;;;;;5.55;4.25;;;6.30;99.50;;;;;;5073612;28;20031;-81
2021/03/23 00:30:56;;;;;;;5.78;4.38;;;6.30;99.50;;;;;;5075060;28;20017;-81
2021/03/23 00:33:23;;;;;;;6.43;4.35;;;6.30;99.50;;;;;;5073589;28;20020;-81
2021/03/23 00:35:52;;;;;;;5.40;4.07;;;6.40;99.50;;;;;;5074707;28;20017;-81
2021/03/23 00:38:18;;;;;;;5.47;3.70;;;6.40;99.50;;;;;;5073371;28;20085;-81
2021/03/23 00:40:43;;;;;;;6.60;4.65;;;6.40;99.40;;;;;;5073618;28;20306;-81
2021/03/23 00:43:10;;;;;;;6.13;4.43;;;6.40;99.40;;;;;;5074557;28;20017;-81
2021/03/23 00:45:41;;;;;;;6.32;4.07;;;6.40;99.40;;;;;;5073350;28;20384;-81
2021/03/23 00:48:08;;;;;;;6.32;4.93;;;6.40;99.50;;;;;;5089590;28;20150;-81
2021/03/23 00:50:35;;;;;;;5.53;4.28;;;6.40;99.60;;;;;;5074568;28;20013;-81
2021/03/23 00:53:01;;;;;;;6.60;4.35;;;6.30;99.60;;;;;;5074325;28;20020;-81
2021/03/23 00:55:26;;;;;;;5.25;3.75;;;6.30;99.80;;;;;;5073044;28;20021;-81
2021/03/23 00:57:52;;;;;;;5.95;3.90;;;6.30;99.80;;;;;;5074493;28;20090;-81
2021/03/23 01:00:19;;;;;;;5.90;4.43;;;6.40;99.80;;;;;;5074395;28;20016;-81
2021/03/23 01:02:45;;;;;;;6.07;4.65;;;6.40;99.90;;;;;;5073115;28;20107;-81
2021/03/23 01:05:13;;;;;;;7.00;5.05;;;6.40;99.90;;;;;;5073747;28;20425;-81
2021/03/23 01:07:39;;;;;;;6.32;4.18;;;6.40;99.90;;;;;;5073042;28;20020;-81
2021/03/23 01:10:06;;;;;;;6.32;4.30;;;6.40;99.90;;;;;;5072688;28;20093;-81
2021/03/23 01:12:32;;;;;;;7.20;4.22;;;6.40;99.90;;;;;;5072774;28;20051;-81
2021/03/23 01:14:58;;;;;;;6.70;4.07;;;6.40;99.80;;;;;;5072431;28;20071;-81
2021/03/23 01:17:23;;;;;;;6.65;3.90;;;6.50;99.80;;;;;;5072963;28;20078;-81
2021/03/23 01:19:49;;;;;;;5.60;3.78;;;6.50;99.80;;;;;;5072609;28;20021;-81
2021/03/23 01:22:14;;;;;;;7.35;4.25;;;6.50;99.80;;;;;;5072772;28;20120;-81
2021/03/23 01:24:40;;;;;;;6.00;4.50;;;6.50;99.80;;;;;;5073737;28;20056;-81
2021/03/23 01:27:06;;;;;;;6.93;4.95;;;6.40;99.80;;;;;;5073825;28;20024;-80
2021/03/23 01:29:32;;;;;;;9.68;6.30;;;6.50;99.90;;;;;;5072552;28;20430;-81
2021/03/23 01:31:58;;;;;;;7.78;5.13;;;6.40;99.90;;;;;;5073833;28;20021;-81
2021/03/23 01:34:24;;;;;;;7.45;5.00;;;6.40;99.90;;;;;;5072522;28;20054;-81
2021/03/23 01:36:50;;;;;;;10.07;6.40;;;6.40;99.90;;;;;;5073728;28;20048;-81
2021/03/23 01:39:15;;;;;;;8.63;6.22;;;6.30;99.90;;;;;;5072184;28;20027;-81
2021/03/23 01:41:41;;;;;;;9.50;6.20;;;6.40;99.90;;;;;;5073588;28;20025;-81
2021/03/23 01:44:06;;;;;;;11.23;7.68;;;6.30;99.90;;;;;;5073536;28;20020;-81
2021/03/23 01:46:43;;;;;;;11.65;7.93;;;6.30;99.90;;;;;;5072425;28;20020;-81
2021/03/23 01:49:28;;;;;;;10.60;7.57;;;6.30;99.90;;;;;;5088791;28;20101;-81
2021/03/23 01:51:58;;;;;;;12.10;8.02;;;6.30;99.90;;;;;;5073492;28;20104;-81
2021/03/23 01:54:30;;;;;;;10.25;7.65;;;6.30;99.90;;;;;;5072073;28;20059;-81
2021/03/23 01:57:01;;;;;;;9.40;7.47;;;6.30;99.90;;;;;;5071992;28;20029;-81
2021/03/23 01:59:29;;;;;;;12.23;8.00;;;6.30;99.90;;;;;;5072077;28;20012;-81
2021/03/23 02:01:58;;;;;;;8.30;6.45;;;6.30;99.90;;;;;;5073361;28;20025;-82
2021/03/23 02:04:24;;;;;;;9.93;7.88;;;6.30;99.90;;;;;;5073168;28;20020;-81
2021/03/23 02:06:50;;;;;;;9.70;7.55;;;6.40;99.90;;;;;;5071983;28;20024;-81
2021/03/23 02:09:20;;;;;;;13.63;9.32;;;6.40;99.90;;;;;;5071723;28;20392;-81
2021/03/23 02:11:54;;;;;;;14.52;8.95;;;6.40;99.90;;;;;;5072980;28;20027;-81
2021/03/23 02:14:23;;;;;;;11.68;8.35;;;6.40;99.90;;;;;;5072706;28;20029;-82
2021/03/23 02:16:49;;;;;;;13.95;10.02;;;6.40;99.90;;;;;;5070662;28;20028;-81
2021/03/23 02:19:18;;;;;;;13.98;9.43;;;6.40;99.90;;;;;;5072848;28;20029;-81
2021/03/23 02:21:44;;;;;;;20.80;14.57;;;6.40;99.90;;;;;;5071672;28;20052;-81
2021/03/23 02:24:13;;;;;;;18.15;14.68;;;6.30;99.90;;;;;;5071405;28;20066;-81
2021/03/23 02:26:39;;;;;;;19.45;14.63;;;6.30;99.90;;;;;;5071170;28;20101;-81
2021/03/23 02:29:10;;;;;;;25.35;15.80;;;6.30;99.90;;;;;;5071479;28;20048;-81
2021/03/23 02:31:46;;;;;;;24.15;16.35;;;6.30;99.90;;;;;;5087073;28;20110;-81
2021/03/23 02:34:14;;;;;;;24.02;16.45;;;6.30;99.90;;;;;;5071375;28;20025;-81
2021/03/23 02:36:41;;;;;;;27.13;19.17;;;6.30;99.90;;;;;;5072450;28;20380;-81
2021/03/23 02:39:09;;;;;;;25.90;18.20;;;6.30;99.90;;;;;;5071247;28;20475;-81
2021/03/23 02:41:35;;;;;;;27.23;19.13;;;6.30;99.90;;;;;;5072269;28;20013;-81
2021/03/23 02:44:01;;;;;;;27.02;17.27;;;6.30;99.90;;;;;;5072417;28;20383;-81
2021/03/23 02:46:26;;;;;;;27.35;18.67;;;6.20;99.90;;;;;;5072384;28;20108;-81
2021/03/23 02:48:52;;;;;;;26.08;18.98;;;6.30;99.90;;;;;;5071099;28;20012;-81
2021/03/23 02:51:18;;;;;;;32.45;21.10;;;6.20;99.90;;;;;;5071043;28;20119;-81
2021/03/23 02:53:48;;;;;;;28.80;20.48;;;6.30;99.90;;;;;;5072357;28;20060;-81
2021/03/23 02:56:14;;;;;;;25.17;19.10;;;6.30;99.90;;;;;;5085396;28;20047;-81
2021/03/23 02:58:41;;;;;;;27.77;19.92;;;6.30;99.90;;;;;;5070995;28;20036;-81
2021/03/23 03:01:07;;;;;;;31.85;22.38;;;6.30;99.90;;;;;;5072082;28;20021;-80
2021/03/23 03:03:33;;;;;;;32.63;22.70;;;6.30;99.90;;;;;;5071001;28;20016;-82
2021/03/23 03:05:59;;;;;;;29.67;21.83;;;6.30;99.90;;;;;;5072099;28;20074;-81
2021/03/23 03:08:25;;;;;;;33.90;23.08;;;6.40;99.90;;;;;;5072312;28;20467;-81
2021/03/23 03:10:52;;;;;;;27.75;21.23;;;6.40;99.90;;;;;;5070526;28;20472;-81
2021/03/23 03:13:21;;;;;;;29.13;21.08;;;6.30;99.90;;;;;;5070709;28;20029;-81
2021/03/23 03:15:47;;;;;;;31.87;21.23;;;6.40;99.90;;;;;;5070349;28;20151;-81
2021/03/23 03:18:13;;;;;;;31.05;22.50;;;6.40;99.90;;;;;;5072123;28;20495;-81
2021/03/23 03:20:39;;;;;;;29.75;21.35;;;6.40;99.90;;;;;;5070763;28;20062;-81
2021/03/23 03:23:05;;;;;;;29.20;21.05;;;6.40;99.90;;;;;;5070754;28;20491;-81
2021/03/23 03:25:30;;;;;;;28.58;20.40;;;6.40;99.90;;;;;;5071885;28;20029;-82
2021/03/23 03:27:56;;;;;;;27.63;19.95;;;6.40;99.90;;;;;;5070303;28;20017;-81
2021/03/23 03:30:28;;;;;;;28.15;20.25;;;6.40;99.90;;;;;;5070431;28;20027;-81
2021/03/23 03:32:55;;;;;;;26.85;19.90;;;6.40;99.90;;;;;;5072042;28;20031;-81
2021/03/23 03:35:24;;;;;;;28.90;20.45;;;6.40;99.90;;;;;;5071588;28;20392;-81
2021/03/23 03:37:50;;;;;;;30.75;22.88;;;6.40;99.90;;;;;;5070612;28;20039;-81
2021/03/23 03:40:22;;;;;;;26.83;19.42;;;6.40;99.90;;;;;;5071602;28;20099;-82
2021/03/23 03:42:48;;;;;;;25.58;19.13;;;6.40;99.90;;;;;;5071814;28;20484;-81
2021/03/23 03:45:14;;;;;;;24.58;19.33;;;6.40;99.90;;;;;;5071676;28;20020;-81
2021/03/23 03:47:40;;;;;;;25.40;18.05;;;6.40;99.90;;;;;;5070577;28;20023;-81
2021/03/23 03:50:06;;;;;;;29.10;19.23;;;6.40;99.90;;;;;;5070289;28;20029;-81
2021/03/23 03:52:33;;;;;;;26.45;19.65;;;6.50;99.90;;;;;;5051374;28;20111;-81
2021/03/23 03:54:58;;;;;;;27.75;18.10;;;6.50;99.90;;;;;;5071540;28;20490;-81
2021/03/23 03:57:24;;;;;;;26.67;17.92;;;6.50;99.90;;;;;;5070257;28;20029;-81
2021/03/23 03:59:50;;;;;;;27.25;19.40;;;6.50;99.90;;;;;;5071597;28;20029;-81
2021/03/23 04:02:15;;;;;;;27.77;17.88;;;6.50;99.90;;;;;;5070122;28;20021;-81
2021/03/23 04:04:44;;;;;;;27.48;18.38;;;6.50;99.90;;;;;;5070403;28;20476;-81
2021/03/23 04:07:10;;;;;;;24.10;16.95;;;6.60;99.90;;;;;;5070117;28;20476;-81
2021/03/23 04:09:36;;;;;;;24.85;17.35;;;6.50;99.90;;;;;;5070259;28;20025;-81
2021/03/23 04:12:01;;;;;;;29.83;18.55;;;6.50;99.90;;;;;;5071289;28;20062;-81
2021/03/23 04:14:27;;;;;;;27.55;19.13;;;6.50;99.90;;;;;;5069786;28;20020;-81
2021/03/23 04:16:53;;;;;;;32.55;20.77;;;6.50;99.90;;;;;;5070157;28;20122;-81
2021/03/23 04:19:18;;;;;;;33.28;20.15;;;6.50;99.90;;;;;;5071595;28;20092;-81
2021/03/23 04:21:44;;;;;;;28.85;19.60;;;6.50;99.90;;;;;;5071269;28;20078;-82
2021/03/23 04:24:09;;;;;;;29.77;19.40;;;6.50;99.90;;;;;;5070122;28;20384;-81
2021/03/23 04:26:35;;;;;;;28.95;19.20;;;6.50;99.90;;;;;;5070077;28;20078;-81
2021/03/23 04:29:00;;;;;;;27.52;18.75;;;6.50;99.90;;;;;;5070144;28;20016;-82
2021/03/23 04:31:37;;;;;;;29.85;18.45;;;6.50;99.90;;;;;;5071440;28;20032;-81
2021/03/23 04:34:03;;;;;;;27.23;17.50;;;6.50;99.90;;;;;;5070263;28;20078;-81
2021/03/23 04:36:29;;;;;;;26.55;17.02;;;6.50;99.90;;;;;;5069644;28;20456;-80
2021/03/23 04:38:54;;;;;;;26.52;18.30;;;6.50;99.90;;;;;;5071007;28;20055;-81
2021/03/23 04:41:21;;;;;;;31.38;18.48;;;6.50;99.90;;;;;;5074736;28;20016;-81
2021/03/23 04:43:48;;;;;;;25.60;16.80;;;6.50;99.90;;;;;;5073289;28;20364;-81
2021/03/23 04:46:19;;;;;;;25.75;16.25;;;6.50;99.90;;;;;;5074686;28;20048;-81
2021/03/23 04:48:45;;;;;;;26.05;17.00;;;6.60;99.90;;;;;;5074818;28;20541;-81
2021/03/23 04:51:12;;;;;;;24.23;15.77;;;6.60;99.90;;;;;;5074463;28;20028;-81
2021/03/23 04:53:40;;;;;;;24.52;16.17;;;6.60;99.90;;;;;;5073345;28;20590;-81
2021/03/23 04:56:08;;;;;;;23.70;16.13;;;6.60;99.90;;;;;;5074625;28;20025;-81
2021/03/23 04:58:34;;;;;;;21.77;14.68;;;6.60;99.90;;;;;;5073325;28;20545;-81
2021/03/23 05:01:00;;;;;;;30.10;18.05;;;6.50;99.90;;;;;;5073175;28;20025;-81
2021/03/23 05:03:32;;;;;;;28.05;18.17;;;6.50;99.90;;;;;;5074604;28;20017;-81
2021/03/23 05:06:07;;;;;;;30.83;18.38;;;6.50;99.90;;;;;;5073093;28;20032;-81
2021/03/23 05:08:33;;;;;;;32.45;19.58;;;6.50;99.90;;;;;;5073214;28;20365;-81
2021/03/23 05:10:59;;;;;;;25.98;17.48;;;6.40;99.90;;;;;;5072935;28;20107;-81
2021/03/23 05:13:25;;;;;;;24.75;17.17;;;6.30;99.90;;;;;;5072844;28;20491;-81
2021/03/23 05:15:50;;;;;;;27.02;17.10;;;6.30;99.90;;;;;;5073747;28;20052;-81
2021/03/23 05:18:16;;;;;;;24.42;16.85;;;6.40;99.90;;;;;;5072796;28;20023;-81
2021/03/23 05:20:43;;;;;;;27.33;17.27;;;6.30;99.90;;;;;;5073011;28;20020;-81
2021/03/23 05:23:10;;;;;;;26.05;17.15;;;6.30;99.90;;;;;;5073827;28;20020;-81
2021/03/23 05:25:36;;;;;;;34.42;19.15;;;6.30;99.90;;;;;;5072734;28;20036;-81
2021/03/23 05:28:01;;;;;;;26.90;18.00;;;6.30;99.90;;;;;;5073793;28;20029;-81
2021/03/23 05:30:27;;;;;;;33.13;18.02;;;6.30;99.90;;;;;;5073808;28;20435;-81
2021/03/23 05:32:53;;;;;;;31.75;19.10;;;6.30;99.90;;;;;;5072336;28;20480;-81
2021/03/23 05:35:19;;;;;;;32.95;19.40;;;6.30;99.90;;;;;;5072533;28;20016;-81
2021/03/23 05:37:45;;;;;;;31.38;18.42;;;6.30;99.90;;;;;;5072478;28;20017;-81
2021/03/23 05:40:18;;;;;;;39.22;20.33;;;6.30;99.90;;;;;;5073546;28;20099;-81
2021/03/23 05:42:46;;;;;;;33.63;20.27;;;6.30;99.90;;;;;;5072254;28;20037;-81
2021/03/23 05:45:30;;;;;;;30.98;19.63;;;6.20;99.90;;;;;;5073446;28;20103;-82
2021/03/23 05:48:24;;;;;;;29.02;18.73;;;6.20;99.90;;;;;;5072291;28;20040;-81
2021/03/23 05:51:17;;;;;;;28.98;18.75;;;6.20;99.90;;;;;;5067481;28;20078;-81
2021/03/23 05:53:53;;;;;;;34.58;20.70;;;6.20;99.90;;;;;;5073269;28;20082;-82
2021/03/23 05:56:20;;;;;;;32.03;19.00;;;6.20;99.90;;;;;;5070243;28;20020;-81
2021/03/23 05:58:50;;;;;;;34.08;18.88;;;6.10;99.90;;;;;;5072118;28;20029;-81
2021/03/23 06:01:22;;;;;;;37.05;20.58;;;6.10;99.90;;;;;;5069533;28;20016;-81
2021/03/23 06:03:52;;;;;;;35.80;19.83;;;6.00;99.90;;;;;;5073090;28;20024;-81
2021/03/23 06:07:00;;;;;;;29.50;17.95;;;6.10;99.90;;;;;;5073051;28;20484;-80
2021/03/23 06:09:39;;;;;;;33.85;18.75;;;6.10;99.90;;;;;;5073257;28;20032;-81
2021/03/23 06:12:39;;;;;;;35.05;21.52;;;6.00;99.90;;;;;;5071309;28;20560;-81
2021/03/23 06:15:17;;;;;;;32.33;19.95;;;6.10;99.90;;;;;;5067548;28;20408;-81
2021/03/23 06:17:48;;;;;;;31.50;19.10;;;6.00;99.90;;;;;;5068073;28;20055;-81
2021/03/23 06:20:23;;;;;;;30.80;18.80;;;6.00;99.90;;;;;;5053736;28;20032;-82
2021/03/23 06:23:23;;;;;;;31.55;19.42;;;6.10;99.90;;;;;;5052100;28;20029;-81
2021/03/23 06:26:04;;;;;;;34.75;19.20;;;6.10;99.90;;;;;;5052552;28;20021;-81
2021/03/23 06:28:55;;;;;;;33.42;19.42;;;6.10;99.90;;;;;;5072675;28;20111;-82
2021/03/23 06:31:44;;;;;;;29.88;18.13;;;6.10;99.90;;;;;;5071905;28;20384;-87
2021/03/23 06:34:24;;;;;;;34.35;19.38;;;6.10;99.90;;;;;;5072216;28;20020;-81
2021/03/23 06:36:50;;;;;;;36.97;20.35;;;6.20;99.90;;;;;;5072261;28;20036;-82
2021/03/23 06:39:17;;;;;;;31.23;19.00;;;6.20;99.90;;;;;;5073815;28;20025;-82
2021/03/23 06:42:03;;;;;;;31.02;18.00;;;6.20;99.90;;;;;;5071343;28;20412;-82
2021/03/23 06:44:36;;;;;;;30.58;17.80;;;6.30;99.90;;;;;;5087836;28;20471;-82
2021/03/23 06:47:03;;;;;;;35.80;19.58;;;6.30;99.90;;;;;;5071977;28;20025;-82
2021/03/23 06:49:34;;;;;;;36.25;19.50;;;6.30;99.90;;;;;;5073392;28;20032;-82
2021/03/23 06:52:23;;;;;;;30.35;17.52;;;6.40;99.90;;;;;;5071916;28;20029;-82
2021/03/23 06:55:19;;;;;;;36.37;19.33;;;6.50;99.90;;;;;;5072053;28;20062;-82
2021/03/23 06:57:45;;;;;;;31.73;19.00;;;6.60;99.90;;;;;;5073360;28;20476;-82
2021/03/23 07:00:14;;;;;;;34.03;19.67;;;6.60;99.90;;;;;;5071937;28;20025;-82
2021/03/23 07:02:46;;;;;;;36.45;20.85;;;6.70;99.90;;;;;;5071253;28;20021;-82
2021/03/23 07:05:24;;;;;;;36.42;21.30;;;6.70;99.90;;;;;;5071621;28;20476;-83
2021/03/23 07:07:51;;;;;;;36.60;21.42;;;6.70;99.90;;;;;;5070858;28;20490;-82
2021/03/23 07:10:22;;;;;;;42.80;21.70;;;6.70;99.90;;;;;;5077615;28;20033;-80
2021/03/23 07:12:47;;;;;;;41.00;21.90;;;6.70;99.90;;;;;;5087708;28;20067;-81
2021/03/23 07:15:22;;;;;;;42.88;22.08;;;6.80;99.90;;;;;;5071967;28;20079;-81
2021/03/23 07:17:50;;;;;;;36.88;23.52;;;6.90;99.90;;;;;;5070382;28;20498;-81
2021/03/23 07:20:28;;;;;;;37.75;22.30;;;6.90;99.90;;;;;;5070996;28;20024;-83
2021/03/23 07:22:54;;;;;;;41.22;23.27;;;7.00;99.90;;;;;;5070832;28;20476;-85
2021/03/23 07:25:31;;;;;;;44.00;25.50;;;7.00;99.90;;;;;;5069990;28;20028;-81
2021/03/23 07:28:21;;;;;;;45.50;24.88;;;7.00;99.90;;;;;;5071678;28;20028;-82
2021/03/23 07:31:08;;;;;;;48.25;25.05;;;7.10;99.90;;;;;;5073019;28;20020;-85
2021/03/23 07:34:10;;;;;;;40.10;24.08;;;7.10;99.90;;;;;;5070562;28;20078;-81
2021/03/23 07:36:44;;;;;;;53.20;30.60;;;7.10;99.90;;;;;;5074853;28;20036;-81
2021/03/23 07:39:20;;;;;;;56.35;30.92;;;7.00;99.90;;;;;;5072030;28;20027;-82
2021/03/23 07:42:06;;;;;;;54.95;32.03;;;7.00;99.90;;;;;;5084943;28;20723;-82
2021/03/23 07:44:45;;;;;;;69.72;36.80;;;6.90;99.90;;;;;;5083660;28;20081;-82
2021/03/23 07:47:20;;;;;;;73.38;39.65;;;6.90;99.90;;;;;;5070210;28;20033;-83
2021/03/23 07:49:55;;;;;;;87.43;46.63;;;6.90;99.90;;;;;;5072391;28;20082;-82
2021/03/23 07:52:31;;;;;;;88.00;45.33;;;6.90;99.90;;;;;;5072533;28;20420;-82
2021/03/23 07:55:01;;;;;;;88.25;45.97;;;6.90;99.90;;;;;;5071034;28;20098;-83
2021/03/23 07:57:36;;;;;;;84.65;46.50;;;6.90;99.90;;;;;;5072649;28;20525;-81
2021/03/23 08:00:16;;;;;;;86.47;48.08;;;6.90;99.90;;;;;;5071143;28;20106;-83
2021/03/23 08:02:54;;;;;;;97.28;49.63;;;7.00;99.90;;;;;;5072187;28;20052;-83
2021/03/23 08:05:26;;;;;;;97.88;52.50;;;7.20;99.90;;;;;;5072478;28;20031;-83
2021/03/23 08:08:16;;;;;;;103.30;53.55;;;7.30;99.90;;;;;;5070885;28;20028;-83
2021/03/23 08:10:50;;;;;;;92.53;51.28;;;7.30;99.90;;;;;;5067499;28;20032;-83
2021/03/23 08:13:28;;;;;;;90.50;52.03;;;7.30;99.90;;;;;;5067440;28;20175;-82
2021/03/23 08:16:21;;;;;;;92.15;50.20;;;7.30;99.90;;;;;;5077098;28;20139;-86
2021/03/23 08:19:22;;;;;;;88.47;50.90;;;7.30;99.90;;;;;;5075210;28;20556;-85
2021/03/23 08:22:16;;;;;;;82.40;47.60;;;7.20;99.90;;;;;;5080856;28;20056;-83
2021/03/23 08:24:48;;;;;;;85.45;48.90;;;7.20;99.90;;;;;;5081195;28;20028;-83
2021/03/23 08:27:24;;;;;;;92.15;49.60;;;7.20;99.90;;;;;;5074844;28;20031;-84
2021/03/23 08:30:27;;;;;;;88.57;50.10;;;7.10;99.90;;;;;;5074917;28;20036;-83
2021/03/23 08:33:01;;;;;;;82.45;46.33;;;7.20;99.90;;;;;;5089998;28;20017;-83
2021/03/23 08:35:49;;;;;;;85.05;47.22;;;7.10;99.90;;;;;;5072969;28;20500;-83
2021/03/23 08:38:41;;;;;;;83.18;44.85;;;7.20;99.90;;;;;;5050130;28;20059;-84
2021/03/23 08:41:33;;;;;;;71.10;43.05;;;7.20;99.90;;;;;;5065809;28;20116;-83
2021/03/23 08:43:59;;;;;;;81.07;43.40;;;7.20;99.90;;;;;;5073985;28;20020;-83
2021/03/23 08:46:28;;;;;;;71.80;42.80;;;7.20;99.90;;;;;;5073958;28;20111;-84
2021/03/23 08:49:05;;;;;;;79.57;45.37;;;7.30;99.90;;;;;;5074246;28;20499;-84
2021/03/23 08:51:33;;;;;;;79.05;44.47;;;7.30;99.90;;;;;;5075138;28;20043;-83
2021/03/23 08:54:04;;;;;;;73.88;41.53;;;7.40;99.90;;;;;;5071852;28;20028;-83
2021/03/23 08:56:42;;;;;;;75.80;43.08;;;7.50;99.90;;;;;;5073933;28;20031;-84
2021/03/23 08:59:38;;;;;;;71.25;42.10;;;7.60;99.90;;;;;;5090303;28;20376;-83
2021/03/23 09:02:07;;;;;;;69.00;37.88;;;7.70;99.90;;;;;;5090639;28;20021;-84
2021/03/23 09:04:35;;;;;;;65.47;36.38;;;7.80;99.90;;;;;;5090399;28;20106;-83
2021/03/23 09:07:17;;;;;;;70.30;37.75;;;7.70;99.90;;;;;;5090951;28;20029;-84
2021/03/23 09:09:47;;;;;;;63.05;37.42;;;7.70;99.90;;;;;;5090871;28;20037;-84
2021/03/23 09:12:40;;;;;;;63.38;37.78;;;7.60;99.90;;;;;;5073472;28;20063;-83
2021/03/23 09:15:08;;;;;;;67.13;37.22;;;7.60;99.90;;;;;;5087910;28;20041;-84
2021/03/23 09:17:58;;;;;;;63.83;36.42;;;7.50;99.90;;;;;;5073623;28;20024;-84
2021/03/23 09:20:34;;;;;;;62.97;36.42;;;7.50;99.90;;;;;;5073450;28;20020;-83
2021/03/23 09:23:18;;;;;;;66.30;36.30;;;7.40;99.90;;;;;;5073797;28;20024;-84
2021/03/23 09:25:46;;;;;;;66.15;36.90;;;7.40;99.90;;;;;;5074326;28;20024;-85
2021/03/23 09:28:39;;;;;;;66.38;34.92;;;7.30;99.90;;;;;;5073527;28;20162;-84
2021/03/23 09:31:31;;;;;;;68.50;36.85;;;7.30;99.90;;;;;;5074785;28;20024;-82
2021/03/23 09:33:58;;;;;;;69.13;37.95;;;7.30;99.90;;;;;;5072143;28;20016;-84
2021/03/23 09:36:40;;;;;;;62.20;34.45;;;7.20;99.90;;;;;;5052594;28;20043;-83
2021/03/23 09:39:15;;;;;;;65.97;36.30;;;7.30;99.90;;;;;;5060877;28;20027;-83
2021/03/23 09:41:51;;;;;;;68.90;38.10;;;7.30;99.90;;;;;;5074842;28;20369;-84
2021/03/23 09:44:17;;;;;;;70.28;37.95;;;7.40;99.90;;;;;;5072072;28;20052;-84
2021/03/23 09:46:45;;;;;;;70.47;38.58;;;7.40;99.90;;;;;;5069003;28;20056;-80
2021/03/23 09:49:13;;;;;;;59.78;34.53;;;7.50;99.90;;;;;;5064815;28;20066;-84
2021/03/23 09:51:43;;;;;;;80.53;39.33;;;7.50;99.90;;;;;;5059741;28;20024;-86
2021/03/23 09:54:16;;;;;;;76.22;41.38;;;7.60;99.90;;;;;;5059337;28;20024;-84
2021/03/23 09:56:46;;;;;;;71.72;40.92;;;7.60;99.90;;;;;;5074110;28;20107;-85
2021/03/23 09:59:15;;;;;;;77.32;41.17;;;7.50;99.90;;;;;;5073040;28;20048;-85
2021/03/23 10:01:59;;;;;;;81.32;42.55;;;7.40;99.90;;;;;;5070170;28;20385;-84
2021/03/23 10:04:39;;;;;;;71.03;38.90;;;7.40;99.90;;;;;;5087566;28;20404;-83
2021/03/23 10:07:11;;;;;;;67.85;38.92;;;7.50;99.90;;;;;;5070668;28;20020;-85
2021/03/23 10:09:38;;;;;;;67.15;37.80;;;7.50;99.90;;;;;;5068835;28;20031;-84
2021/03/23 10:12:05;;;;;;;62.90;34.92;;;7.60;99.90;;;;;;5071814;28;20534;-84
2021/03/23 10:14:40;;;;;;;67.07;36.58;;;7.60;99.90;;;;;;5071059;28;20400;-83
2021/03/23 10:17:20;;;;;;;66.07;35.17;;;7.70;99.90;;;;;;5060358;28;20134;-85
2021/03/23 10:19:50;;;;;;;;;;;7.70;99.90;;;;;;5075753;28;20134;-83
2021/03/23 10:22:29;;;;;;;64.38;34.38;;;7.70;99.90;;;;;;5066656;28;19911;-84
2021/03/23 10:24:57;;;;;;;58.30;33.88;;;7.70;99.90;;;;;;5083517;28;20074;-88
2021/03/23 10:27:29;;;;;;;60.60;33.70;;;7.70;99.90;;;;;;5075105;28;20016;-88
2021/03/23 10:30:11;;;;;;;56.20;32.70;;;7.80;99.90;;;;;;5065387;28;20020;-88
2021/03/23 10:32:58;;;;;;;56.42;34.72;;;7.70;99.90;;;;;;5082207;28;20048;-87
2021/03/23 10:35:49;;;;;;;60.63;34.75;;;7.70;99.90;;;;;;5066790;28;20047;-87
2021/03/23 10:38:19;;;;;;;59.35;35.03;;;7.90;99.90;;;;;;5067332;28;20028;-93
2021/03/23 10:40:49;;;;;;;58.50;32.55;;;7.90;99.90;;;;;;5064805;28;20021;-86
2021/03/23 10:43:31;;;;;;;62.03;33.88;;;7.90;99.90;;;;;;5071693;28;20078;-85
2021/03/23 10:45:58;;;;;;;61.25;34.45;;;8.00;99.90;;;;;;5064978;28;20044;-87
2021/03/23 10:48:49;;;;;;;66.78;34.17;;;8.00;99.90;;;;;;5065089;28;20059;-86
2021/03/23 10:51:22;;;;;;;60.63;34.45;;;8.20;99.90;;;;;;5053035;28;20032;-83
2021/03/23 10:54:07;;;;;;;70.93;36.30;;;8.20;99.90;;;;;;5070823;28;20032;-85
2021/03/23 10:56:36;;;;;;;67.43;35.30;;;8.10;99.90;;;;;;5087581;28;20046;-83
2021/03/23 10:59:21;;;;;;;64.72;34.47;;;8.00;99.90;;;;;;5059966;28;20031;-86
2021/03/23 11:02:21;;;;;;;67.68;36.60;;;8.20;99.90;;;;;;5072458;28;20103;-89
2021/03/23 11:05:11;;;;;;;67.72;35.72;;;8.40;99.90;;;;;;5071798;28;20365;-83
2021/03/23 11:08:00;;;;;;;67.95;35.83;;;8.50;99.90;;;;;;5073123;28;20442;-83
2021/03/23 11:10:29;;;;;;;70.97;36.85;;;8.60;99.90;;;;;;5072755;28;20059;-83
2021/03/23 11:12:55;;;;;;;66.32;36.13;;;8.70;99.90;;;;;;5071805;28;20074;-83
2021/03/23 11:15:22;;;;;;;64.82;34.63;;;8.80;99.90;;;;;;5071035;28;20098;-85
2021/03/23 11:17:50;;;;;;;62.58;34.50;;;9.00;99.90;;;;;;5070933;28;20036;-84
2021/03/23 11:20:38;;;;;;;63.63;34.72;;;8.80;99.90;;;;;;5071032;28;20021;-84
2021/03/23 11:23:22;;;;;;;62.78;33.17;;;8.70;99.90;;;;;;5083790;28;20020;-82
2021/03/23 11:25:47;;;;;;;64.88;34.55;;;8.50;99.90;;;;;;5084207;28;20085;-81
2021/03/23 11:28:17;;;;;;;58.28;33.05;;;8.70;99.90;;;;;;5071602;28;20103;-84
2021/03/23 11:30:44;;;;;;;57.10;33.38;;;8.90;99.90;;;;;;5071687;28;20036;-84
2021/03/23 11:33:12;;;;;;;59.72;33.30;;;9.10;99.90;;;;;;5071459;28;20103;-83
2021/03/23 11:35:38;;;;;;;62.05;33.60;;;9.40;99.90;;;;;;5069588;28;20040;-83
2021/03/23 11:38:03;;;;;;;61.65;34.70;;;9.60;99.90;;;;;;5070019;28;20028;-84
2021/03/23 11:40:29;;;;;;;65.10;32.70;;;9.80;99.90;;;;;;5070268;28;20403;-84
2021/03/23 11:42:55;;;;;;;60.45;32.25;;;9.90;99.90;;;;;;5070095;28;20111;-84
2021/03/23 11:45:42;;;;;;;58.30;33.78;;;9.80;99.50;;;;;;5069990;28;20029;-85
2021/03/23 11:48:11;;;;;;;59.25;30.92;;;9.90;99.90;;;;;;5071124;28;20082;-84
2021/03/23 11:50:38;;;;;;;57.28;32.30;;;9.80;99.90;;;;;;5074305;28;20032;-84
2021/03/23 11:53:05;;;;;;;61.08;33.83;;;9.80;99.90;;;;;;5083636;28;20032;-84
2021/03/23 11:55:34;;;;;;;57.30;33.08;;;9.60;99.90;;;;;;5073497;28;20072;-84
2021/03/23 11:58:02;;;;;;;54.08;32.13;;;9.50;99.90;;;;;;5071046;28;20074;-84
2021/03/23 12:00:29;;;;;;;56.22;31.90;;;9.30;99.90;;;;;;5072049;28;20123;-83
2021/03/23 12:02:56;;;;;;;61.78;33.05;;;9.20;99.90;;;;;;5074601;28;20040;-84
2021/03/23 12:05:23;;;;;;;67.88;34.47;;;9.00;99.90;;;;;;5075751;28;20028;-83
2021/03/23 12:08:22;;;;;;;65.95;37.05;;;8.80;99.90;;;;;;5075168;28;20487;-84
2021/03/23 12:11:12;;;;;;;63.28;35.33;;;8.70;99.90;;;;;;5047794;28;20047;-84
2021/03/23 12:13:44;;;;;;;66.35;35.53;;;8.50;99.90;;;;;;5072954;28;20108;-83
2021/03/23 12:16:30;;;;;;;64.65;34.63;;;8.60;99.90;;;;;;5088053;28;20049;-84
2021/03/23 12:19:02;;;;;;;61.03;34.13;;;8.60;99.90;;;;;;5074778;28;20012;-83
2021/03/23 12:21:29;;;;;;;65.65;35.15;;;8.60;99.90;;;;;;5073665;28;20078;-83
2021/03/23 12:23:55;;;;;;;71.63;37.08;;;8.60;99.90;;;;;;5073243;28;20116;-83
2021/03/23 12:26:21;;;;;;;63.72;34.45;;;8.70;99.90;;;;;;5074906;28;20031;-83
2021/03/23 12:28:47;;;;;;;61.33;33.92;;;8.60;99.90;;;;;;5073726;28;20039;-83
2021/03/23 12:31:13;;;;;;;65.45;36.83;;;8.70;99.90;;;;;;5073951;28;20024;-83
2021/03/23 12:33:39;;;;;;;66.28;35.92;;;8.80;99.90;;;;;;5073880;28;20024;-83
2021/03/23 12:36:06;;;;;;;66.00;36.05;;;8.80;99.90;;;;;;5074840;28;20028;-83
2021/03/23 12:38:34;;;;;;;60.55;33.35;;;8.70;99.90;;;;;;5070959;28;20029;-83
2021/03/23 12:41:00;;;;;;;64.55;35.75;;;8.80;99.90;;;;;;5072513;28;20078;-83
2021/03/23 12:43:27;;;;;;;64.97;35.70;;;8.90;99.90;;;;;;5074968;28;20032;-83
2021/03/23 12:45:55;;;;;;;65.40;35.47;;;9.00;99.90;;;;;;5083001;28;20029;-83
2021/03/23 12:48:21;;;;;;;58.72;33.17;;;9.10;99.90;;;;;;5073476;28;20123;-83
2021/03/23 12:50:47;;;;;;;65.88;34.95;;;9.10;99.90;;;;;;5073610;28;20024;-83
2021/03/23 12:53:15;;;;;;;66.88;36.13;;;9.00;99.90;;;;;;5073143;28;20016;-83
2021/03/23 12:55:44;;;;;;;62.03;34.33;;;9.10;99.90;;;;;;5073233;28;20036;-83
2021/03/23 12:58:15;;;;;;;64.38;34.58;;;9.10;99.90;;;;;;5074454;28;20022;-83
2021/03/23 13:00:40;;;;;;;56.45;32.63;;;9.20;99.90;;;;;;5072381;28;20099;-83
2021/03/23 13:03:12;;;;;;;59.47;33.88;;;9.30;99.90;;;;;;5073192;28;20548;-83
2021/03/23 13:05:37;;;;;;;60.95;34.58;;;9.50;99.90;;;;;;5074494;28;20060;-83